Time;durP1;ratioP1;P1;durP2;ratioP2;P2;SDS_P1;SDS_P2;PMS_P1;PMS_P2;Temp;Humidity;BMP_temperature;BMP_pressure;BME280_temperature;BME280_humidity;BME280_pressure;Samples;Min_cycle;Max_cycle;Signal;HPM_P1;HPM_P2
2022/09/04 00:01:39;;;;;;;;;;;;;;;23.39;66.25;101328.53;7398602;19;1932;-38
2022/09/04 00:04:13;;;;;;;;;;;;;;;23.40;65.86;101330.25;7401470;19;996;-38
2022/09/04 00:06:44;;;;;;;;;;;;;;;23.39;65.82;101328.53;7400374;19;1947;-38
2022/09/04 00:09:17;;;;;;;;;;;;;;;23.36;65.85;101328.84;7400734;19;1914;-38
2022/09/04 00:11:50;;;;;;;;;;;;;;;23.35;66.00;101327.13;7399824;19;1686;-38
2022/09/04 00:14:19;;;;;;;;;;;;;;;23.39;65.65;101331.22;7400704;19;1833;-38
2022/09/04 00:16:57;;;;;;;;;;;;;;;23.43;65.92;101332.63;7393895;19;1919;-38
2022/09/04 00:19:30;;;;;;;;;;;;;;;23.41;65.94;101342.72;7398421;19;2221;-38
2022/09/04 00:22:00;;;;;;;;;;;;;;;23.43;65.87;101348.81;7399985;19;2038;-38
2022/09/04 00:24:32;;;;;;;;;;;;;;;23.38;66.03;101348.44;7402297;19;2426;-38
2022/09/04 00:27:05;;;;;;;;;;;;;;;23.42;65.86;101351.69;7407248;19;1821;-38
2022/09/04 00:29:40;;;;;;;;;;;;;;;23.41;65.97;101347.28;7404996;19;1922;-39
2022/09/04 00:32:17;;;;;;;;;;;;;;;23.39;66.17;101357.38;7405298;19;1765;-39
2022/09/04 00:35:01;;;;;;;;;;;;;;;23.37;66.11;101352.13;7399865;19;1652;-38
2022/09/04 00:37:34;;;;;;;;;;;;;;;23.38;65.86;101356.53;7400074;19;1658;-37
2022/09/04 00:40:04;;;;;;;;;;;;;;;23.35;66.00;101367.63;7402004;19;1798;-37
2022/09/04 00:42:45;;;;;;;;;;;;;;;23.38;66.15;101355.69;7399018;19;1859;-38
2022/09/04 00:45:17;;;;;;;;;;;;;;;23.38;66.10;101359.25;7400322;19;1804;-38
2022/09/04 00:48:03;;;;;;;;;;;;;;;23.36;66.19;101353.16;7404274;19;1911;-37
2022/09/04 00:50:48;;;;;;;;;;;;;;;23.36;66.09;101360.41;7401713;19;1650;-37
2022/09/04 00:53:28;;;;;;;;;;;;;;;23.36;65.87;101373.88;7398635;19;1892;-38
2022/09/04 00:56:13;;;;;;;;;;;;;;;23.38;65.92;101372.72;7398826;19;1678;-38
2022/09/04 00:58:47;;;;;;;;;;;;;;;23.34;66.18;101367.78;7402645;19;1820;-37
2022/09/04 01:01:18;;;;;;;;;;;;;;;23.40;65.93;101380.69;7402779;19;1863;-38
2022/09/04 01:03:59;;;;;;;;;;;;;;;23.41;66.11;101387.78;7406397;19;1730;-37
2022/09/04 01:06:34;;;;;;;;;;;;;;;23.35;66.00;101386.50;7405466;19;1895;-38
2022/09/04 01:09:21;;;;;;;;;;;;;;;23.39;66.02;101371.72;7404784;19;1760;-39
2022/09/04 01:11:55;;;;;;;;;;;;;;;23.35;66.02;101389.22;7404135;19;1822;-37
2022/09/04 01:14:28;;;;;;;;;;;;;;;23.37;66.07;101389.06;7405307;19;1823;-37
2022/09/04 01:17:03;;;;;;;;;;;;;;;23.36;65.89;101382.84;7404960;19;1660;-37
2022/09/04 01:19:49;;;;;;;;;;;;;;;23.36;65.76;101414.38;7404298;19;1677;-38
2022/09/04 01:22:26;;;;;;;;;;;;;;;23.36;66.18;101393.63;7404449;19;1853;-37
2022/09/04 01:25:09;;;;;;;;;;;;;;;23.40;65.91;101402.28;7405505;19;1877;-37
2022/09/04 01:27:44;;;;;;;;;;;;;;;23.35;65.95;101397.31;7404126;19;1753;-37
2022/09/04 01:30:14;;;;;;;;;;;;;;;23.36;66.11;101392.78;7405369;19;1626;-37
2022/09/04 01:32:47;;;;;;;;;;;;;;;23.35;66.25;101381.13;7405403;19;1618;-37
2022/09/04 01:35:23;;;;;;;;;;;;;;;23.37;66.15;101395.31;7406363;19;1597;-38
2022/09/04 01:37:57;;;;;;;;;;;;;;;23.37;65.91;101395.31;7405040;19;1098;-38
2022/09/04 01:40:29;;;;;;;;;;;;;;;23.33;66.06;101399.31;7406381;19;1685;-38
2022/09/04 01:43:03;;;;;;;;;;;;;;;23.31;66.17;101398.59;7401329;19;1848;-39
2022/09/04 01:45:38;;;;;;;;;;;;;;;23.33;66.08;101391.22;7403919;19;1780;-38
2022/09/04 01:48:09;;;;;;;;;;;;;;;23.34;66.12;101400.19;7404168;19;1905;-37
2022/09/04 01:50:40;;;;;;;;;;;;;;;23.32;65.91;101408.41;7403750;19;1691;-37
2022/09/04 01:53:13;;;;;;;;;;;;;;;23.35;65.95;101407.25;7405490;19;1825;-38
2022/09/04 01:55:46;;;;;;;;;;;;;;;23.32;66.07;101405.72;7405690;19;1637;-39
2022/09/04 01:58:24;;;;;;;;;;;;;;;23.36;66.00;101412.53;7405402;19;973;-37
2022/09/04 02:00:58;;;;;;;;;;;;;;;23.34;66.06;101402.88;7398064;19;3405;-66
2022/09/04 02:03:30;;;;;;;;;;;;;;;23.33;66.22;101431.69;7406331;19;1862;-66
2022/09/04 02:06:02;;;;;;;;;;;;;;;23.32;65.81;101416.50;7407139;19;1611;-69
2022/09/04 02:08:36;;;;;;;;;;;;;;;23.39;65.68;101419.47;7406728;19;1536;-67
2022/09/04 02:11:09;;;;;;;;;;;;;;;23.35;66.11;101407.25;7406424;19;1643;-59
2022/09/04 02:13:45;;;;;;;;;;;;;;;23.34;65.78;101405.56;7409200;19;1004;-59
2022/09/04 02:16:17;;;;;;;;;;;;;;;23.40;65.96;101421.19;7407030;19;1727;-60
2022/09/04 02:18:52;;;;;;;;;;;;;;;23.37;65.75;101426.84;7407455;19;1537;-59
2022/09/04 02:21:26;;;;;;;;;;;;;;;23.36;65.69;101435.97;7407359;19;1591;-60
2022/09/04 02:24:01;;;;;;;;;;;;;;;23.32;66.12;101419.22;7405441;19;1837;-59
2022/09/04 02:26:32;;;;;;;;;;;;;;;23.35;66.02;101427.00;7407525;19;1756;-59
2022/09/04 02:29:05;;;;;;;;;;;;;;;23.33;65.80;101417.34;7407335;19;1736;-59
2022/09/04 02:31:38;;;;;;;;;;;;;;;23.35;66.06;101418.91;7407345;19;1786;-59
2022/09/04 02:34:09;;;;;;;;;;;;;;;23.34;65.92;101422.63;7407656;19;1567;-59
2022/09/04 02:36:42;;;;;;;;;;;;;;;23.33;65.74;101414.66;7407126;19;1535;-59
2022/09/04 02:39:15;;;;;;;;;;;;;;;23.32;65.80;101421.91;7406887;19;1536;-59
2022/09/04 02:41:50;;;;;;;;;;;;;;;23.31;65.82;101405.84;7407011;19;1000;-59
2022/09/04 02:44:35;;;;;;;;;;;;;;;23.32;65.98;101408.41;7406767;19;1685;-59
2022/09/04 02:47:06;;;;;;;;;;;;;;;23.30;66.13;101404.16;7408142;19;970;-59
2022/09/04 02:49:39;;;;;;;;;;;;;;;23.36;66.10;101409.81;7406866;19;1781;-59
2022/09/04 02:52:14;;;;;;;;;;;;;;;23.34;65.67;101414.50;7407051;19;1753;-59
2022/09/04 02:54:49;;;;;;;;;;;;;;;23.33;65.77;101393.91;7405704;19;1662;-60
2022/09/04 02:57:23;;;;;;;;;;;;;;;23.30;66.13;101420.34;7406813;19;1547;-60
2022/09/04 03:00:03;;;;;;;;;;;;;;;23.29;66.01;101397.91;7406072;19;1555;-60
2022/09/04 03:02:35;;;;;;;;;;;;;;;23.35;66.07;101408.09;7405207;19;1863;-60
2022/09/04 03:05:07;;;;;;;;;;;;;;;23.33;65.86;101384.97;7404656;19;1704;-60
2022/09/04 03:07:37;;;;;;;;;;;;;;;23.33;66.10;101377.72;7407081;19;886;-60
2022/09/04 03:10:11;;;;;;;;;;;;;;;23.32;65.83;101380.59;7406262;19;1690;-60
2022/09/04 03:12:41;;;;;;;;;;;;;;;23.33;65.98;101393.91;7405682;19;1658;-60
2022/09/04 03:15:16;;;;;;;;;;;;;;;23.33;65.84;101402.00;7406463;19;1638;-59
2022/09/04 03:17:49;;;;;;;;;;;;;;;23.31;66.09;101406.69;7406416;19;1619;-60
2022/09/04 03:20:21;;;;;;;;;;;;;;;23.32;65.81;101411.13;7406634;19;1053;-60
2022/09/04 03:22:53;;;;;;;;;;;;;;;23.30;66.09;101405.03;7399394;19;1846;-60
2022/09/04 03:25:36;;;;;;;;;;;;;;;23.30;65.75;101399.63;7405966;19;1552;-60
2022/09/04 03:28:05;;;;;;;;;;;;;;;23.30;65.80;101398.75;7405484;19;1606;-60
2022/09/04 03:30:37;;;;;;;;;;;;;;;23.29;65.90;101403.31;7405184;19;1576;-60
2022/09/04 03:33:10;;;;;;;;;;;;;;;23.31;65.88;101401.31;7404574;19;1563;-60
2022/09/04 03:35:44;;;;;;;;;;;;;;;23.32;65.79;101408.41;7403333;19;1753;-60
2022/09/04 03:38:19;;;;;;;;;;;;;;;23.30;65.94;101399.63;7403315;19;1659;-60
2022/09/04 03:40:53;;;;;;;;;;;;;;;23.31;65.79;101390.50;7399462;19;1738;-60
2022/09/04 03:43:34;;;;;;;;;;;;;;;23.33;65.92;101398.47;7401270;19;1865;-60
2022/09/04 03:46:12;;;;;;;;;;;;;;;23.35;65.92;101402.72;7402566;19;1638;-67
2022/09/04 03:48:51;;;;;;;;;;;;;;;23.28;65.76;101396.22;7403742;19;1649;-67
2022/09/04 03:51:24;;;;;;;;;;;;;;;23.29;65.95;101403.31;7405436;19;1559;-67
2022/09/04 03:53:58;;;;;;;;;;;;;;;23.31;65.78;101417.50;7401850;19;1622;-67
2022/09/04 03:56:38;;;;;;;;;;;;;;;23.31;65.86;101422.91;7402852;19;1524;-67
2022/09/04 03:59:07;;;;;;;;;;;;;;;23.28;65.90;101423.22;7405370;19;1611;-67
2022/09/04 04:01:43;;;;;;;;;;;;;;;23.27;65.88;101421.50;7401446;19;1920;-67
2022/09/04 04:04:33;;;;;;;;;;;;;;;23.29;65.90;101424.06;7402962;19;1848;-67
2022/09/04 04:07:07;;;;;;;;;;;;;;;23.27;65.89;101434.97;7400706;19;1783;-67
2022/09/04 04:09:44;;;;;;;;;;;;;;;23.27;66.00;101418.78;7404984;19;925;-67
2022/09/04 04:12:19;;;;;;;;;;;;;;;23.30;65.81;101421.22;7402101;19;1629;-67
2022/09/04 04:14:59;;;;;;;;;;;;;;;23.26;65.73;101436.00;7403989;19;1034;-67
2022/09/04 04:17:39;;;;;;;;;;;;;;;23.27;65.87;101442.25;7405381;19;963;-67
2022/09/04 04:20:20;;;;;;;;;;;;;;;23.26;65.92;101427.91;7404812;19;1701;-67
2022/09/04 04:22:55;;;;;;;;;;;;;;;23.29;65.70;101424.06;7399024;19;1848;-67
2022/09/04 04:25:41;;;;;;;;;;;;;;;23.29;66.08;101440.25;7403552;19;1638;-60
2022/09/04 04:28:18;;;;;;;;;;;;;;;23.30;65.72;101426.59;7404574;19;1524;-60
2022/09/04 04:30:51;;;;;;;;;;;;;;;23.28;65.71;101407.00;7403665;19;1654;-59
2022/09/04 04:33:41;;;;;;;;;;;;;;;23.29;65.75;101411.41;7407535;19;964;-60
2022/09/04 04:36:16;;;;;;;;;;;;;;;23.32;65.93;101423.75;7410006;19;1665;-60
2022/09/04 04:38:51;;;;;;;;;;;;;;;23.28;65.91;101436.69;7410835;19;1532;-60
2022/09/04 04:41:29;;;;;;;;;;;;;;;23.26;65.99;101409.00;7410242;19;1646;-60
2022/09/04 04:44:04;;;;;;;;;;;;;;;23.28;66.13;101414.22;7408526;19;1845;-60
2022/09/04 04:46:38;;;;;;;;;;;;;;;23.31;65.75;101425.59;7410646;19;1618;-60
2022/09/04 04:49:27;;;;;;;;;;;;;;;23.25;65.76;101426.19;7410079;19;1547;-60
2022/09/04 04:52:08;;;;;;;;;;;;;;;23.31;65.85;101427.44;7409763;19;1529;-60
2022/09/04 04:54:47;;;;;;;;;;;;;;;23.28;65.87;101428.59;7410569;19;1702;-60
2022/09/04 04:57:21;;;;;;;;;;;;;;;23.28;65.60;101434.00;7410629;19;1694;-60
2022/09/04 04:59:54;;;;;;;;;;;;;;;23.31;65.95;101446.34;7410074;19;1658;-60
2022/09/04 05:02:25;;;;;;;;;;;;;;;23.34;65.91;101437.97;7407938;19;1623;-60
2022/09/04 05:05:01;;;;;;;;;;;;;;;23.31;65.66;101422.91;7406973;19;1956;-60
2022/09/04 05:07:37;;;;;;;;;;;;;;;23.37;65.60;101443.88;7411079;19;1615;-60
2022/09/04 05:10:13;;;;;;;;;;;;;;;23.35;65.54;101447.75;7410023;19;1552;-60
2022/09/04 05:12:51;;;;;;;;;;;;;;;23.35;65.68;101459.38;7410002;19;1516;-60
2022/09/04 05:15:22;;;;;;;;;;;;;;;23.37;65.54;101470.03;7410173;19;1274;-60
2022/09/04 05:17:53;;;;;;;;;;;;;;;23.41;65.62;101461.47;7411110;19;998;-60
2022/09/04 05:20:34;;;;;;;;;;;;;;;23.44;65.61;101471.16;7410222;19;1781;-60
2022/09/04 05:23:11;;;;;;;;;;;;;;;23.42;65.29;101462.34;7405687;19;1861;-60
2022/09/04 05:25:41;;;;;;;;;;;;;;;23.46;65.22;101479.09;7410044;19;1532;-60
2022/09/04 05:28:19;;;;;;;;;;;;;;;23.48;65.30;101477.13;7409186;19;1539;-60
2022/09/04 05:30:51;;;;;;;;;;;;;;;23.50;65.22;101477.81;7408729;19;1626;-60
2022/09/04 05:33:24;;;;;;;;;;;;;;;23.56;65.19;101490.72;7409956;19;918;-60
2022/09/04 05:35:57;;;;;;;;;;;;;;;23.53;64.92;101482.91;7407475;19;1748;-60
2022/09/04 05:38:32;;;;;;;;;;;;;;;23.57;65.25;101497.81;7408346;19;1543;-60
2022/09/04 05:41:06;;;;;;;;;;;;;;;23.56;65.10;101496.13;7407230;19;925;-60
2022/09/04 05:43:51;;;;;;;;;;;;;;;23.55;65.14;101486.31;7406332;19;1870;-60
2022/09/04 05:46:26;;;;;;;;;;;;;;;23.51;65.25;101493.00;7407472;19;1646;-60
2022/09/04 05:49:00;;;;;;;;;;;;;;;23.55;65.23;101503.34;7408406;19;934;-60
2022/09/04 05:51:53;;;;;;;;;;;;;;;23.64;65.11;101512.44;7408799;19;1756;-60
2022/09/04 05:54:34;;;;;;;;;;;;;;;23.60;64.84;101508.31;7406914;19;1753;-67
2022/09/04 05:57:17;;;;;;;;;;;;;;;23.62;64.93;101507.16;7408372;19;1535;-67
2022/09/04 05:59:58;;;;;;;;;;;;;;;23.64;64.91;101515.13;7408871;19;2230;-67
2022/09/04 06:02:34;;;;;;;;;;;;;;;23.65;64.69;101516.81;7406484;19;1646;-67
2022/09/04 06:05:10;;;;;;;;;;;;;;;23.67;64.97;101512.13;7406468;19;1849;-60
2022/09/04 06:07:43;;;;;;;;;;;;;;;23.66;64.96;101512.28;7408247;19;1785;-60
2022/09/04 06:10:18;;;;;;;;;;;;;;;23.71;64.80;101524.31;7408614;19;1643;-60
2022/09/04 06:12:57;;;;;;;;;;;;;;;23.66;64.83;101515.84;7408099;19;1654;-60
2022/09/04 06:15:34;;;;;;;;;;;;;;;23.64;64.73;101536.72;7408287;19;1662;-60
2022/09/04 06:18:12;;;;;;;;;;;;;;;23.63;64.78;101529.63;7407871;19;1559;-60
2022/09/04 06:20:52;;;;;;;;;;;;;;;23.69;64.96;101536.28;7408074;19;984;-60
2022/09/04 06:23:36;;;;;;;;;;;;;;;23.65;64.86;101535.72;7403845;19;1855;-60
2022/09/04 06:26:17;;;;;;;;;;;;;;;23.61;64.75;101531.63;7406765;19;1539;-60
2022/09/04 06:29:00;;;;;;;;;;;;;;;23.65;65.09;101533.00;7406792;19;984;-60
2022/09/04 06:31:41;;;;;;;;;;;;;;;23.71;64.90;101536.97;7406807;19;1690;-60
2022/09/04 06:34:16;;;;;;;;;;;;;;;23.68;64.71;101540.84;7407166;19;1670;-60
2022/09/04 06:36:59;;;;;;;;;;;;;;;23.69;64.99;101550.63;7407388;19;1625;-60
2022/09/04 06:39:36;;;;;;;;;;;;;;;23.68;64.78;101543.53;7405079;19;1678;-60
2022/09/04 06:42:20;;;;;;;;;;;;;;;23.65;65.15;101533.00;7407204;19;1082;-60
2022/09/04 06:44:56;;;;;;;;;;;;;;;23.65;64.91;101540.28;7405459;19;1857;-60
2022/09/04 06:47:29;;;;;;;;;;;;;;;23.68;65.06;101542.69;7403127;19;1855;-60
2022/09/04 06:50:10;;;;;;;;;;;;;;;23.65;64.96;101556.47;7406533;19;1622;-60
2022/09/04 06:52:45;;;;;;;;;;;;;;;23.67;64.95;101552.63;7407923;19;1011;-60
2022/09/04 06:55:17;;;;;;;;;;;;;;;23.69;65.03;101545.22;7406936;19;1662;-60
2022/09/04 06:58:04;;;;;;;;;;;;;;;23.68;65.05;101548.94;7406373;19;1823;-60
2022/09/04 07:00:37;;;;;;;;;;;;;;;23.64;65.29;101547.53;7406525;19;1821;-60
2022/09/04 07:03:23;;;;;;;;;;;;;;;23.70;65.25;101559.59;7404734;19;1709;-60
2022/09/04 07:05:56;;;;;;;;;;;;;;;23.70;65.04;101552.34;7404812;19;1576;-60
2022/09/04 07:08:34;;;;;;;;;;;;;;;23.70;65.09;101549.63;7405345;19;1637;-60
2022/09/04 07:11:06;;;;;;;;;;;;;;;23.70;64.94;101541.53;7406153;19;1568;-60
2022/09/04 07:13:55;;;;;;;;;;;;;;;23.68;65.15;101543.53;7407372;19;988;-60
2022/09/04 07:16:32;;;;;;;;;;;;;;;23.71;65.12;101540.53;7403832;19;1705;-60
2022/09/04 07:19:12;;;;;;;;;;;;;;;23.72;64.99;101577.34;7405448;19;1666;-60
2022/09/04 07:21:47;;;;;;;;;;;;;;;23.70;64.95;101546.94;7404541;19;1630;-60
2022/09/04 07:24:36;;;;;;;;;;;;;;;23.71;65.30;101543.22;7404032;19;1868;-60
2022/09/04 07:27:11;;;;;;;;;;;;;;;23.73;65.17;101537.69;7405110;19;1646;-60
2022/09/04 07:29:41;;;;;;;;;;;;;;;23.68;65.23;101527.34;7405878;19;955;-60
2022/09/04 07:32:17;;;;;;;;;;;;;;;23.68;65.39;101532.72;7405569;19;1685;-60
2022/09/04 07:34:50;;;;;;;;;;;;;;;23.68;65.30;101529.19;7405239;19;1777;-60
2022/09/04 07:37:26;;;;;;;;;;;;;;;23.68;65.21;101537.28;7403251;19;1797;-60
2022/09/04 07:39:59;;;;;;;;;;;;;;;23.70;65.21;101552.34;7406027;19;1583;-60
2022/09/04 07:42:31;;;;;;;;;;;;;;;23.71;65.28;101520.78;7406102;19;987;-68
2022/09/04 07:45:04;;;;;;;;;;;;;;;23.70;65.40;101536.13;7404269;19;1853;-68
2022/09/04 07:47:41;;;;;;;;;;;;;;;23.69;65.06;101529.03;7404387;19;1788;-68
2022/09/04 07:50:12;;;;;;;;;;;;;;;23.69;65.21;101522.78;7404473;19;1737;-67
2022/09/04 07:52:53;;;;;;;;;;;;;;;23.72;65.40;101526.03;7405257;19;1560;-67
2022/09/04 07:55:30;;;;;;;;;;;;;;;23.68;65.18;101518.38;7404524;19;1700;-67
2022/09/04 07:58:23;;;;;;;;;;;;;;;23.69;65.06;101507.41;7403932;19;1568;-67
2022/09/04 08:00:58;;;;;;;;;;;;;;;23.70;65.13;101519.94;7399636;19;1744;-67
2022/09/04 08:03:35;;;;;;;;;;;;;;;23.72;65.30;101507.13;7404435;19;1571;-67
2022/09/04 08:06:10;;;;;;;;;;;;;;;23.71;65.38;101512.69;7404536;19;983;-67
2022/09/04 08:08:52;;;;;;;;;;;;;;;23.73;65.24;101519.63;7408118;19;1682;-67
2022/09/04 08:11:35;;;;;;;;;;;;;;;23.70;65.31;101511.84;7412452;19;1563;-67
2022/09/04 08:14:17;;;;;;;;;;;;;;;23.73;65.39;101514.22;7412506;19;1596;-67
2022/09/04 08:16:49;;;;;;;;;;;;;;;23.71;65.14;101527.03;7410398;19;1543;-68
2022/09/04 08:19:28;;;;;;;;;;;;;;;23.70;65.19;101533.44;7410401;19;1540;-67
2022/09/04 08:21:56;;;;;;;;;;;;;;;23.70;65.17;101530.75;7410083;19;1771;-68
2022/09/04 08:24:49;;;;;;;;;;;;;;;23.70;65.20;101514.53;7409434;19;1865;-60
2022/09/04 08:27:24;;;;;;;;;;;;;;;23.71;65.25;101526.19;7411527;19;1572;-60
2022/09/04 08:30:01;;;;;;;;;;;;;;;23.68;65.50;101529.19;7411064;19;1519;-60
2022/09/04 08:32:43;;;;;;;;;;;;;;;23.70;65.41;101513.69;7412237;19;1016;-60
2022/09/04 08:35:16;;;;;;;;;;;;;;;23.69;65.41;101523.63;7411326;19;1752;-60
2022/09/04 08:37:54;;;;;;;;;;;;;;;23.68;65.36;101531.91;7410259;19;1662;-60
2022/09/04 08:40:36;;;;;;;;;;;;;;;23.68;65.37;101538.13;7411251;19;1768;-60
2022/09/04 08:43:26;;;;;;;;;;;;;;;23.66;65.29;101515.84;7406975;19;1651;-60
2022/09/04 08:46:12;;;;;;;;;;;;;;;23.70;65.47;101535.28;7408977;19;1853;-60
2022/09/04 08:48:55;;;;;;;;;;;;;;;23.69;65.42;101529.03;7411050;19;1555;-67
2022/09/04 08:51:38;;;;;;;;;;;;;;;23.70;65.53;101536.13;7411029;19;1066;-67
2022/09/04 08:54:31;;;;;;;;;;;;;;;23.67;65.28;101536.41;7407935;19;1841;-67
2022/09/04 08:57:10;;;;;;;;;;;;;;;23.70;65.54;101530.75;7409017;19;1567;-67
2022/09/04 08:59:59;;;;;;;;;;;;;;;23.66;65.21;101532.03;7410215;19;1582;-67
2022/09/04 09:02:42;;;;;;;;;;;;;;;23.69;65.41;101542.53;7406742;19;1063;-67
2022/09/04 09:05:31;;;;;;;;;;;;;;;23.70;65.53;101541.53;7407797;19;1871;-67
2022/09/04 09:08:17;;;;;;;;;;;;;;;23.71;65.27;101554.03;7406552;19;1078;-67
2022/09/04 09:11:09;;;;;;;;;;;;;;;23.70;65.34;101530.75;7409417;19;1442;-67
2022/09/04 09:13:51;;;;;;;;;;;;;;;23.69;65.46;101531.72;7410349;19;1047;-60
2022/09/04 09:16:23;;;;;;;;;;;;;;;23.69;65.21;101537.13;7409382;19;1371;-67
2022/09/04 09:19:10;;;;;;;;;;;;;;;23.69;65.41;101539.81;7407468;19;1338;-60
2022/09/04 09:21:44;;;;;;;;;;;;;;;23.71;65.51;101532.41;7407302;19;1500;-60
2022/09/04 09:24:29;;;;;;;;;;;;;;;23.74;65.08;101540.25;7408917;19;1849;-67
2022/09/04 09:27:11;;;;;;;;;;;;;;;23.74;65.24;101536.69;7408712;19;1413;-67
2022/09/04 09:29:57;;;;;;;;;;;;;;;23.73;65.30;101521.47;7409063;19;1516;-67
2022/09/04 09:32:41;;;;;;;;;;;;;;;23.74;65.26;101542.94;7408755;19;1642;-67
2022/09/04 09:35:24;;;;;;;;;;;;;;;23.76;65.46;101538.25;7409240;19;1531;-67
2022/09/04 09:38:08;;;;;;;;;;;;;;;23.73;65.27;101543.09;7409394;19;1016;-61
2022/09/04 09:40:59;;;;;;;;;;;;;;;23.72;65.32;101558.44;7409787;19;932;-60
2022/09/04 09:43:55;;;;;;;;;;;;;;;23.68;65.58;101559.75;7406815;19;1717;-60
2022/09/04 09:46:37;;;;;;;;;;;;;;;23.69;65.50;101561.44;7405877;19;1829;-60
2022/09/04 09:49:26;;;;;;;;;;;;;;;23.68;65.64;101558.91;7408166;19;1650;-60
2022/09/04 09:52:09;;;;;;;;;;;;;;;23.70;65.43;101556.91;7409316;19;1003;-60
2022/09/04 09:54:54;;;;;;;;;;;;;;;23.69;65.53;101539.81;7407427;19;1638;-60
2022/09/04 09:57:28;;;;;;;;;;;;;;;23.71;65.51;101543.22;7408880;19;1595;-60
2022/09/04 10:00:17;;;;;;;;;;;;;;;23.67;65.57;101530.19;7408276;19;1539;-60
2022/09/04 10:03:02;;;;;;;;;;;;;;;23.71;65.23;101554.03;7407204;19;982;-60
2022/09/04 10:05:45;;;;;;;;;;;;;;;23.69;65.30;101518.22;7406048;19;1864;-60
2022/09/04 10:08:23;;;;;;;;;;;;;;;23.72;65.20;101526.03;7408729;19;1578;-60
2022/09/04 10:11:06;;;;;;;;;;;;;;;23.74;65.30;101526.75;7406239;19;1570;-60
2022/09/04 10:13:51;;;;;;;;;;;;;;;23.72;65.43;101512.53;7403272;19;1672;-60
2022/09/04 10:16:35;;;;;;;;;;;;;;;23.68;65.15;101519.22;7406630;19;1604;-60
2022/09/04 10:19:21;;;;;;;;;;;;;;;23.68;65.43;101521.94;7404905;19;1549;-60
2022/09/04 10:22:07;;;;;;;;;;;;;;;23.72;65.41;101544.94;7407737;19;1390;-60
2022/09/04 10:25:04;;;;;;;;;;;;;;;23.70;65.49;101546.09;7405605;19;1860;-60
2022/09/04 10:27:43;;;;;;;;;;;;;;;23.65;65.30;101533.00;7408426;19;953;-60
2022/09/04 10:30:14;;;;;;;;;;;;;;;23.66;65.53;101545.53;7403977;19;1669;-60
2022/09/04 10:32:50;;;;;;;;;;;;;;;23.65;65.61;101543.81;7407848;19;930;-60
2022/09/04 10:35:24;;;;;;;;;;;;;;;23.71;65.59;101556.72;7407436;19;1712;-60
2022/09/04 10:37:59;;;;;;;;;;;;;;;23.68;65.68;101562.44;7406697;19;1760;-60
2022/09/04 10:40:37;;;;;;;;;;;;;;;23.68;65.44;101548.94;7406628;19;1696;-60
2022/09/04 10:43:26;;;;;;;;;;;;;;;23.68;65.30;101540.84;7403331;19;1708;-60
2022/09/04 10:45:59;;;;;;;;;;;;;;;23.71;65.31;101528.88;7403109;19;1869;-60
2022/09/04 10:48:36;;;;;;;;;;;;;;;23.68;65.35;101551.63;7407427;19;991;-60
2022/09/04 10:51:10;;;;;;;;;;;;;;;23.65;65.63;101527.63;7407187;19;1775;-60
2022/09/04 10:53:51;;;;;;;;;;;;;;;23.69;65.37;101539.81;7403791;19;1656;-60
2022/09/04 10:56:28;;;;;;;;;;;;;;;23.74;65.22;101529.44;7407433;19;1625;-60
2022/09/04 10:59:09;;;;;;;;;;;;;;;23.72;65.44;101520.63;7406997;19;1597;-60
2022/09/04 11:02:04;;;;;;;;;;;;;;;23.74;65.56;101529.44;7405460;19;1551;-60
2022/09/04 11:04:51;;;;;;;;;;;;;;;23.71;65.33;101537.81;7404811;19;1859;-60
2022/09/04 11:07:40;;;;;;;;;;;;;;;23.72;65.35;101538.69;7405194;19;1638;-60
2022/09/04 11:10:16;;;;;;;;;;;;;;;23.69;65.36;101529.03;7407064;19;1145;-60
2022/09/04 11:12:59;;;;;;;;;;;;;;;23.69;65.33;101529.03;7406673;19;976;-60
2022/09/04 11:15:42;;;;;;;;;;;;;;;23.68;65.42;101516.53;7407302;19;925;-60
2022/09/04 11:18:32;;;;;;;;;;;;;;;23.70;65.35;101540.69;7407199;19;1001;-60
2022/09/04 11:21:19;;;;;;;;;;;;;;;23.67;65.29;101509.41;7406114;19;1852;-60
2022/09/04 11:24:12;;;;;;;;;;;;;;;23.73;65.58;101537.69;7403473;19;1789;-60
2022/09/04 11:27:01;;;;;;;;;;;;;;;23.74;65.22;101523.19;7401465;19;1844;-60
2022/09/04 11:29:40;;;;;;;;;;;;;;;23.75;65.30;101514.91;7405253;19;1044;-60
2022/09/04 11:32:14;;;;;;;;;;;;;;;23.73;65.59;101516.06;7405806;19;1705;-60
2022/09/04 11:35:04;;;;;;;;;;;;;;;23.71;65.28;101505.41;7402864;19;1682;-60
2022/09/04 11:37:42;;;;;;;;;;;;;;;23.71;65.48;101518.91;7404806;19;1626;-60
2022/09/04 11:40:25;;;;;;;;;;;;;;;23.71;65.39;101497.31;7404784;19;1567;-60
2022/09/04 11:43:05;;;;;;;;;;;;;;;23.72;65.53;101506.28;7402930;19;1536;-60
2022/09/04 11:45:51;;;;;;;;;;;;;;;23.70;65.28;101492.09;7404261;19;1843;-60
2022/09/04 11:48:41;;;;;;;;;;;;;;;23.74;65.56;101498.88;7405670;19;1775;-60
2022/09/04 11:51:38;;;;;;;;;;;;;;;23.72;65.31;101490.09;7406170;19;982;-60
2022/09/04 11:54:29;;;;;;;;;;;;;;;23.70;65.46;101492.94;7402402;19;1685;-60
2022/09/04 11:57:04;;;;;;;;;;;;;;;23.69;65.47;101491.22;7404088;19;1642;-60
2022/09/04 11:59:44;;;;;;;;;;;;;;;23.70;65.47;101495.63;7404278;19;1667;-60
2022/09/04 12:02:27;;;;;;;;;;;;;;;23.71;65.27;101489.22;7402210;19;1519;-60
2022/09/04 12:05:05;;;;;;;;;;;;;;;23.77;65.43;101491.34;7403321;19;1855;-60
2022/09/04 12:07:42;;;;;;;;;;;;;;;23.76;65.18;101491.50;7404126;19;996;-66
2022/09/04 12:10:25;;;;;;;;;;;;;;;23.73;65.67;101484.50;7404395;19;1732;-60
2022/09/04 12:13:03;;;;;;;;;;;;;;;23.74;65.44;101488.09;7404315;19;1689;-60
2022/09/04 12:15:51;;;;;;;;;;;;;;;23.77;65.50;101487.78;7403664;19;1643;-60
2022/09/04 12:18:35;;;;;;;;;;;;;;;23.71;65.37;101478.41;7404460;19;1718;-60
2022/09/04 12:21:34;;;;;;;;;;;;;;;23.74;65.58;101494.34;7404592;19;1710;-60
2022/09/04 12:24:11;;;;;;;;;;;;;;;23.76;65.30;101492.34;7401583;19;1814;-60
2022/09/04 12:26:48;;;;;;;;;;;;;;;23.74;65.15;101488.94;7401099;19;1849;-60
2022/09/04 12:29:33;;;;;;;;;;;;;;;23.71;65.45;101500.00;7402685;19;1637;-60
2022/09/04 12:32:19;;;;;;;;;;;;;;;23.74;65.24;101497.03;7403193;19;1603;-60
2022/09/04 12:34:53;;;;;;;;;;;;;;;23.74;65.30;101486.22;7400407;19;1579;-67
2022/09/04 12:37:42;;;;;;;;;;;;;;;23.72;65.24;101514.41;7402463;19;1634;-67
2022/09/04 12:40:28;;;;;;;;;;;;;;;23.74;65.64;101507.84;7403233;19;1669;-67
2022/09/04 12:43:01;;;;;;;;;;;;;;;23.74;65.38;101493.50;7402626;19;1539;-67
2022/09/04 12:45:35;;;;;;;;;;;;;;;23.75;65.36;101490.63;7403248;19;1852;-67
2022/09/04 12:48:10;;;;;;;;;;;;;;;23.77;65.60;101487.78;7404553;19;1012;-67
2022/09/04 12:50:43;;;;;;;;;;;;;;;23.76;65.29;101465.31;7402900;19;1666;-67
2022/09/04 12:53:26;;;;;;;;;;;;;;;23.75;65.41;101477.13;7403195;19;1607;-67
2022/09/04 12:56:02;;;;;;;;;;;;;;;23.74;65.22;101461.94;7407389;19;1642;-67
2022/09/04 12:58:39;;;;;;;;;;;;;;;23.75;65.45;101477.13;7411201;19;1516;-67
2022/09/04 13:01:14;;;;;;;;;;;;;;;23.73;65.64;101476.41;7409826;19;1642;-67
2022/09/04 13:03:49;;;;;;;;;;;;;;;23.77;65.37;101495.88;7411599;19;946;-67
2022/09/04 13:06:26;;;;;;;;;;;;;;;23.73;65.22;101486.38;7409346;19;1903;-67
2022/09/04 13:09:00;;;;;;;;;;;;;;;23.74;65.24;101501.59;7407762;19;1842;-67
2022/09/04 13:11:41;;;;;;;;;;;;;;;23.77;65.35;101491.34;7410531;19;1572;-67
2022/09/04 13:14:29;;;;;;;;;;;;;;;23.81;65.29;101476.56;7410153;19;1653;-67
2022/09/04 13:17:01;;;;;;;;;;;;;;;23.80;65.11;101466.75;7409032;19;1595;-67
2022/09/04 13:19:36;;;;;;;;;;;;;;;23.82;65.41;101474.72;7410236;19;1539;-67
2022/09/04 13:22:17;;;;;;;;;;;;;;;23.77;65.13;101456.25;7409535;19;1401;-67
2022/09/04 13:24:50;;;;;;;;;;;;;;;23.74;65.23;101456.53;7408884;19;1705;-60
2022/09/04 13:27:29;;;;;;;;;;;;;;;23.74;65.41;101455.69;7407774;19;1850;-60
2022/09/04 13:30:04;;;;;;;;;;;;;;;23.75;65.27;101451.97;7409534;19;1630;-60
2022/09/04 13:32:39;;;;;;;;;;;;;;;23.74;65.23;101461.94;7409084;19;1539;-60
2022/09/04 13:35:12;;;;;;;;;;;;;;;23.74;65.57;101461.09;7409490;19;1598;-60
2022/09/04 13:37:50;;;;;;;;;;;;;;;23.76;65.53;101481.53;7410113;19;1070;-60
2022/09/04 13:40:23;;;;;;;;;;;;;;;23.75;65.46;101474.41;7409895;19;1685;-60
2022/09/04 13:43:12;;;;;;;;;;;;;;;23.72;65.27;101474.72;7409147;19;1855;-60
2022/09/04 13:45:44;;;;;;;;;;;;;;;23.71;65.45;101489.22;7408507;19;1915;-60